Time;durP1;ratioP1;P1;durP2;ratioP2;P2;SDS_P1;SDS_P2;PMS_P1;PMS_P2;Temp;Humidity;BMP_temperature;BMP_pressure;BME280_temperature;BME280_humidity;BME280_pressure;Samples;Min_cycle;Max_cycle;Signal;HPM_P1;HPM_P2
2023/01/13 00:01:40;;;;;;;19.27;2.55;;;11.10;99.90;;;;;;4030133;29;20203;-87
2023/01/13 00:03:41;;;;;;;19.77;2.25;;;10.80;99.90;;;;;;4045870;29;20196;-87
2023/01/13 00:05:42;;;;;;;15.40;2.20;;;10.70;99.90;;;;;;4046697;29;20564;-87
2023/01/13 00:07:43;;;;;;;15.07;2.67;;;10.70;99.90;;;;;;4062633;29;20272;-87
2023/01/13 00:09:43;;;;;;;15.45;2.25;;;10.70;99.90;;;;;;4033704;29;20178;-90
2023/01/13 00:11:44;;;;;;;24.98;2.88;;;10.50;99.90;;;;;;4048927;29;20235;-90
2023/01/13 00:13:45;;;;;;;26.67;3.00;;;10.50;99.90;;;;;;4031643;29;20190;-88
2023/01/13 00:15:59;;;;;;;26.73;3.55;;;10.50;99.90;;;;;;4046846;29;20214;-87
2023/01/13 00:17:59;;;;;;;23.55;2.70;;;10.50;99.90;;;;;;4030772;29;20671;-91
2023/01/13 00:20:00;;;;;;;18.88;3.00;;;10.60;99.90;;;;;;4044985;29;20197;-87
2023/01/13 00:22:01;;;;;;;22.90;3.10;;;10.50;99.90;;;;;;4033714;29;20214;-87
2023/01/13 00:24:01;;;;;;;20.75;2.42;;;10.40;99.90;;;;;;4029972;29;20245;-92
2023/01/13 00:28:45;;;;;;;25.65;3.85;;;10.60;99.90;;;;;;4045994;29;20674;-87
2023/01/13 00:30:46;;;;;;;29.25;3.33;;;10.60;99.90;;;;;;4051415;29;20231;-89
2023/01/13 00:32:48;;;;;;;26.67;3.20;;;10.60;99.90;;;;;;4064392;29;20236;-86
2023/01/13 00:34:49;;;;;;;20.27;3.05;;;10.40;99.90;;;;;;4048128;29;20176;-93
2023/01/13 00:36:49;;;;;;;22.75;2.95;;;10.50;99.90;;;;;;4045253;29;20192;-89
2023/01/13 00:38:50;;;;;;;30.88;2.78;;;10.40;99.90;;;;;;4031585;29;20174;-87
2023/01/13 00:41:06;;;;;;;27.13;2.78;;;10.50;99.90;;;;;;4048075;29;20647;-86
2023/01/13 00:43:22;;;;;;;25.42;3.28;;;10.40;99.90;;;;;;4033839;29;20189;-87
2023/01/13 00:45:23;;;;;;;23.02;2.78;;;10.40;99.90;;;;;;4016870;29;20215;-88
2023/01/13 00:47:23;;;;;;;25.30;3.00;;;10.30;99.90;;;;;;4016109;29;20211;-87
2023/01/13 00:49:24;;;;;;;23.33;3.42;;;10.30;99.90;;;;;;4019722;29;20175;-87
2023/01/13 00:51:25;;;;;;;18.10;3.13;;;10.20;99.90;;;;;;4015499;29;20261;-87
2023/01/13 00:53:27;;;;;;;22.27;2.65;;;10.10;99.90;;;;;;4033973;29;20181;-89
2023/01/13 00:55:30;;;;;;;24.15;3.40;;;10.10;99.90;;;;;;4034962;29;20206;-87
2023/01/13 00:57:31;;;;;;;31.73;3.00;;;10.00;99.90;;;;;;4030911;29;20215;-88
2023/01/13 00:59:32;;;;;;;20.38;2.30;;;10.10;99.90;;;;;;4032837;29;20190;-86
2023/01/13 01:01:32;;;;;;;19.58;2.08;;;10.10;99.90;;;;;;4029860;29;20197;-88
2023/01/13 01:03:34;;;;;;;20.13;2.30;;;10.00;99.90;;;;;;4017886;29;20668;-87
2023/01/13 01:05:34;;;;;;;20.90;3.20;;;10.00;99.90;;;;;;4015174;29;20256;-87
2023/01/13 01:07:35;;;;;;;13.45;1.85;;;9.90;99.90;;;;;;4029175;29;20195;-87
2023/01/13 01:09:38;;;;;;;23.27;3.00;;;9.80;99.90;;;;;;4029654;29;20278;-87
2023/01/13 01:11:38;;;;;;;22.17;2.47;;;9.80;99.90;;;;;;4033395;29;20169;-95
2023/01/13 01:13:40;;;;;;;13.93;1.88;;;9.70;99.90;;;;;;4012594;29;20210;-87
2023/01/13 01:15:42;;;;;;;22.50;2.38;;;9.70;99.90;;;;;;4030109;29;20189;-87
2023/01/13 01:17:42;;;;;;;14.98;2.10;;;9.70;99.90;;;;;;4030144;29;20278;-86
2023/01/13 01:19:43;;;;;;;18.52;2.30;;;9.80;99.90;;;;;;4026993;29;20178;-87
2023/01/13 01:21:45;;;;;;;18.25;1.95;;;9.70;99.90;;;;;;4031761;29;20206;-87
2023/01/13 01:23:46;;;;;;;18.20;2.30;;;9.80;99.90;;;;;;4031350;29;20185;-86
2023/01/13 01:25:47;;;;;;;17.45;1.98;;;9.80;99.90;;;;;;4030954;29;20286;-89
2023/01/13 01:27:47;;;;;;;14.15;1.65;;;9.80;99.90;;;;;;4014313;29;20191;-91
2023/01/13 01:29:48;;;;;;;12.80;2.03;;;9.90;99.90;;;;;;4028601;29;20182;-89
2023/01/13 01:31:49;;;;;;;16.45;1.58;;;9.80;99.90;;;;;;4028452;29;20174;-94
2023/01/13 01:33:50;;;;;;;16.55;2.10;;;9.60;99.90;;;;;;4014529;29;20194;-92
2023/01/13 01:35:50;;;;;;;12.75;1.80;;;9.60;99.90;;;;;;4028849;29;20186;-95
2023/01/13 01:37:51;;;;;;;17.85;1.90;;;9.60;99.90;;;;;;4028415;29;20190;-87
2023/01/13 01:39:52;;;;;;;14.57;1.50;;;9.50;99.90;;;;;;4030140;29;20182;-87
2023/01/13 01:44:52;;;;;;;11.77;1.85;;;9.50;99.90;;;;;;4045812;29;20185;-86
2023/01/13 01:46:55;;;;;;;21.65;1.98;;;9.50;99.90;;;;;;4014418;29;20279;-92
2023/01/13 01:49:05;;;;;;;15.93;2.10;;;9.50;99.90;;;;;;4030409;29;20182;-92
2023/01/13 01:51:10;;;;;;;15.38;2.17;;;9.50;99.90;;;;;;4028009;29;20247;-87
2023/01/13 01:53:17;;;;;;;16.83;2.38;;;9.40;99.90;;;;;;4028783;29;20210;-88
2023/01/13 01:55:21;;;;;;;14.20;1.52;;;9.60;99.90;;;;;;4013910;29;20253;-95
2023/01/13 01:57:32;;;;;;;10.80;1.67;;;9.60;99.90;;;;;;4028930;29;20195;-87
2023/01/13 01:59:34;;;;;;;22.05;2.30;;;9.60;99.90;;;;;;4000748;29;20182;-92
2023/01/13 02:01:55;;;;;;;17.52;2.63;;;9.60;99.90;;;;;;4028067;29;20273;-88
2023/01/13 02:04:02;;;;;;;16.38;1.77;;;9.60;99.90;;;;;;4031942;29;20205;-86
2023/01/13 02:06:03;;;;;;;19.20;1.80;;;9.40;99.90;;;;;;4015879;29;20585;-88
2023/01/13 02:08:05;;;;;;;10.52;2.30;;;9.30;99.90;;;;;;4015689;29;20187;-88
2023/01/13 02:10:13;;;;;;;17.67;2.40;;;9.20;99.90;;;;;;4029169;29;20174;-87
2023/01/13 02:12:31;;;;;;;13.95;2.00;;;9.10;99.90;;;;;;4013272;29;20181;-87
2023/01/13 02:14:33;;;;;;;17.05;1.70;;;9.20;99.90;;;;;;4015364;29;20182;-87
2023/01/13 02:16:41;;;;;;;14.93;1.70;;;9.20;99.90;;;;;;4034079;29;20203;-87
2023/01/13 02:18:52;;;;;;;17.05;1.90;;;9.10;99.90;;;;;;4013967;29;20186;-87
2023/01/13 02:21:12;;;;;;;13.75;1.70;;;9.20;99.90;;;;;;4029799;29;20189;-87
2023/01/13 02:26:15;;;;;;;14.88;1.63;;;9.30;99.90;;;;;;4045752;29;20221;-94
2023/01/13 02:28:36;;;;;;;20.23;2.30;;;9.30;99.90;;;;;;4026793;29;20587;-87
2023/01/13 02:33:33;;;;;;;13.32;1.80;;;9.40;99.90;;;;;;4044107;29;20185;-95
2023/01/13 02:35:49;;;;;;;14.02;1.50;;;9.40;99.90;;;;;;4014312;29;20565;-86
2023/01/13 02:37:52;;;;;;;13.77;1.80;;;9.40;99.90;;;;;;4027893;29;20272;-88
2023/01/13 02:40:30;;;;;;;16.27;1.73;;;9.30;99.90;;;;;;4013902;29;20179;-89
2023/01/13 02:45:11;;;;;;;13.95;1.75;;;9.50;99.90;;;;;;4045292;29;20214;-91
2023/01/13 02:47:17;;;;;;;17.45;2.63;;;9.50;99.90;;;;;;4013833;29;20198;-87
2023/01/13 02:49:39;;;;;;;13.35;1.55;;;9.50;99.90;;;;;;4026507;29;20255;-87
2023/01/13 02:51:43;;;;;;;22.00;2.72;;;9.50;99.90;;;;;;4014104;29;20170;-92
2023/01/13 02:53:49;;;;;;;22.98;2.10;;;9.50;99.90;;;;;;4015021;29;20186;-94
2023/01/13 02:55:52;;;;;;;20.25;2.13;;;9.50;99.90;;;;;;4012599;29;20185;-87
2023/01/13 02:57:57;;;;;;;21.98;2.13;;;9.40;99.90;;;;;;4013979;29;20282;-88
2023/01/13 03:00:03;;;;;;;10.43;1.80;;;9.50;99.90;;;;;;4013102;29;20190;-94
2023/01/13 03:02:09;;;;;;;19.70;2.40;;;9.60;99.90;;;;;;4015558;29;20203;-87
2023/01/13 03:04:32;;;;;;;14.32;2.00;;;9.70;99.90;;;;;;4018535;29;20273;-87
2023/01/13 03:07:04;;;;;;;18.70;2.10;;;9.60;99.90;;;;;;4005045;29;20227;-87
2023/01/13 03:09:26;;;;;;;16.58;2.00;;;9.60;99.90;;;;;;4013169;29;20216;-87
2023/01/13 03:11:30;;;;;;;17.98;2.03;;;9.70;99.90;;;;;;4016645;29;20179;-90
2023/01/13 03:14:00;;;;;;;22.85;1.83;;;9.60;99.90;;;;;;4014102;29;20197;-87
2023/01/13 03:16:46;;;;;;;15.23;2.53;;;9.60;99.90;;;;;;4031758;29;20246;-88
2023/01/13 03:18:55;;;;;;;25.58;2.13;;;9.70;99.90;;;;;;3998043;29;20178;-88
2023/01/13 03:21:05;;;;;;;16.48;2.05;;;9.80;99.90;;;;;;4033163;29;20178;-90
2023/01/13 03:23:43;;;;;;;14.07;1.73;;;9.70;99.90;;;;;;4028839;29;20181;-87
2023/01/13 03:26:15;;;;;;;20.10;1.90;;;9.50;99.90;;;;;;4012985;29;20253;-87
2023/01/13 03:28:31;;;;;;;12.88;2.15;;;9.60;99.90;;;;;;4010171;29;20206;-87
2023/01/13 03:30:41;;;;;;;13.40;1.98;;;9.70;99.90;;;;;;4031474;29;20332;-90
2023/01/13 03:32:51;;;;;;;13.18;1.50;;;9.70;99.90;;;;;;4014263;29;20291;-93
2023/01/13 03:35:18;;;;;;;14.98;1.73;;;9.60;99.90;;;;;;4016895;29;20182;-87
2023/01/13 03:37:28;;;;;;;17.90;2.05;;;9.60;99.90;;;;;;4017000;29;20206;-87
2023/01/13 03:39:33;;;;;;;13.82;1.48;;;9.40;99.90;;;;;;4013331;29;20175;-88
2023/01/13 03:41:51;;;;;;;10.02;1.42;;;9.40;99.90;;;;;;4016042;29;20271;-91
2023/01/13 03:44:23;;;;;;;11.30;1.70;;;9.40;99.90;;;;;;4029044;29;20265;-90
2023/01/13 03:46:31;;;;;;;9.18;1.25;;;9.30;99.90;;;;;;4015376;29;20182;-87
2023/01/13 03:48:34;;;;;;;12.77;2.38;;;9.20;99.90;;;;;;4017506;29;20166;-87
2023/01/13 03:50:45;;;;;;;9.55;1.30;;;9.30;99.90;;;;;;4016323;29;20189;-87
2023/01/13 03:52:55;;;;;;;14.40;1.60;;;9.30;99.90;;;;;;4029731;29;20178;-86
2023/01/13 03:55:19;;;;;;;16.38;1.60;;;9.40;99.90;;;;;;4032143;29;20244;-87
2023/01/13 03:57:27;;;;;;;12.55;1.90;;;9.30;99.90;;;;;;4033925;29;20204;-92
2023/01/13 03:59:34;;;;;;;10.52;1.85;;;9.20;99.90;;;;;;4029934;29;20169;-87
2023/01/13 04:01:52;;;;;;;9.10;1.38;;;9.20;99.90;;;;;;4016490;29;20186;-88
2023/01/13 04:04:00;;;;;;;13.18;1.80;;;9.10;99.90;;;;;;4033104;29;20185;-87
2023/01/13 04:06:36;;;;;;;11.05;1.30;;;9.20;99.90;;;;;;4030380;29;20229;-89
2023/01/13 04:08:42;;;;;;;16.00;1.42;;;9.20;99.90;;;;;;4031121;29;20190;-87
2023/01/13 04:11:02;;;;;;;20.25;1.80;;;9.20;99.90;;;;;;4016209;29;20232;-90
2023/01/13 04:13:15;;;;;;;13.15;2.00;;;9.30;99.90;;;;;;4018031;29;20206;-88
2023/01/13 04:15:19;;;;;;;10.82;1.77;;;9.40;99.90;;;;;;4016396;29;20189;-87
2023/01/13 04:17:20;;;;;;;13.88;2.30;;;9.40;99.90;;;;;;4033849;29;20246;-94
2023/01/13 04:19:21;;;;;;;12.90;1.92;;;9.40;99.90;;;;;;4016000;29;20243;-90
2023/01/13 04:21:22;;;;;;;15.48;2.22;;;9.30;99.90;;;;;;4033558;29;20169;-89
2023/01/13 04:23:23;;;;;;;17.88;2.35;;;9.30;99.90;;;;;;4031486;29;20198;-87
2023/01/13 04:25:24;;;;;;;15.13;2.13;;;9.20;99.90;;;;;;4027424;29;20217;-87
2023/01/13 04:27:25;;;;;;;12.20;1.70;;;9.30;99.90;;;;;;4030667;29;20285;-87
2023/01/13 04:29:26;;;;;;;16.13;1.83;;;9.30;99.90;;;;;;4030671;29;20188;-87
2023/01/13 04:31:26;;;;;;;15.10;1.85;;;9.40;99.90;;;;;;4014933;29;20179;-86
2023/01/13 04:33:27;;;;;;;21.52;1.95;;;9.40;99.90;;;;;;4045140;29;20158;-86
2023/01/13 04:35:28;;;;;;;15.05;1.88;;;9.50;99.90;;;;;;4028272;29;20186;-87
2023/01/13 04:37:28;;;;;;;16.20;2.17;;;9.40;99.90;;;;;;4012952;29;20205;-87
2023/01/13 04:39:29;;;;;;;16.98;4.25;;;9.50;99.90;;;;;;4011284;29;20740;-87
2023/01/13 04:42:03;;;;;;;13.63;3.45;;;9.40;99.90;;;;;;4032419;29;20182;-87
2023/01/13 04:43:57;;;;;;;8.40;1.73;;;9.40;99.90;;;;;;4028592;29;20179;-88
2023/01/13 04:45:57;;;;;;;14.93;2.42;;;9.30;99.90;;;;;;4031269;29;20226;-87
2023/01/13 04:47:58;;;;;;;15.52;2.85;;;9.40;99.90;;;;;;4031736;29;20249;-88
2023/01/13 04:49:59;;;;;;;13.85;2.85;;;9.40;99.90;;;;;;4031760;29;20166;-89
2023/01/13 04:52:02;;;;;;;12.23;1.73;;;9.40;99.90;;;;;;4031659;29;20226;-87
2023/01/13 04:54:03;;;;;;;12.73;2.72;;;9.20;99.90;;;;;;4017167;29;20198;-87
2023/01/13 04:56:04;;;;;;;13.70;2.63;;;9.20;99.90;;;;;;4012016;29;20193;-95
2023/01/13 04:58:07;;;;;;;8.55;1.38;;;9.00;99.90;;;;;;4030658;29;20179;-87
2023/01/13 05:00:10;;;;;;;14.13;2.13;;;9.10;99.90;;;;;;4015208;29;20778;-87
2023/01/13 05:02:18;;;;;;;11.35;1.92;;;9.10;99.90;;;;;;4030182;29;20182;-88
2023/01/13 05:04:26;;;;;;;10.45;1.48;;;9.10;99.90;;;;;;4030733;29;20186;-87
2023/01/13 05:06:27;;;;;;;12.40;1.77;;;9.10;99.90;;;;;;4029806;29;20225;-87
2023/01/13 05:08:28;;;;;;;10.05;1.27;;;9.20;99.90;;;;;;4027635;29;20178;-87
2023/01/13 05:10:29;;;;;;;15.20;2.85;;;9.10;99.90;;;;;;4027927;29;20246;-86
2023/01/13 05:17:12;;;;;;;14.32;1.50;;;9.00;99.90;;;;;;4047343;29;20205;-88
2023/01/13 05:19:13;;;;;;;13.43;2.03;;;9.10;99.90;;;;;;4027539;29;20174;-90
2023/01/13 05:25:52;;;;;;;15.00;1.50;;;9.00;99.90;;;;;;4031579;29;20740;-87
2023/01/13 05:27:59;;;;;;;10.73;1.27;;;9.00;99.90;;;;;;4011140;29;20222;-87
2023/01/13 05:29:59;;;;;;;11.68;1.75;;;9.20;99.90;;;;;;4042973;29;20241;-87
2023/01/13 05:32:03;;;;;;;14.05;1.52;;;9.00;99.90;;;;;;4029027;29;20636;-87
2023/01/13 05:34:04;;;;;;;18.50;1.73;;;8.90;99.90;;;;;;4012846;29;20175;-87
2023/01/13 05:38:25;;;;;;;14.15;1.65;;;8.90;99.90;;;;;;4059698;29;20215;-87
2023/01/13 05:45:05;;;;;;;12.68;1.55;;;8.80;99.90;;;;;;4043895;29;20225;-88
2023/01/13 05:47:05;;;;;;;23.55;6.15;;;8.80;99.90;;;;;;4025937;29;20199;-87
2023/01/13 05:49:06;;;;;;;19.85;2.28;;;9.00;99.90;;;;;;4016591;29;20198;-87
2023/01/13 05:51:10;;;;;;;15.00;1.88;;;8.90;99.90;;;;;;4014470;29;20261;-88
2023/01/13 05:53:10;;;;;;;22.20;2.83;;;8.80;99.90;;;;;;4010029;29;20190;-91
2023/01/13 05:55:11;;;;;;;16.50;4.28;;;8.70;99.90;;;;;;4013614;29;20171;-87
2023/01/13 05:57:12;;;;;;;14.45;3.50;;;8.50;99.90;;;;;;4013243;29;20208;-88
2023/01/13 05:59:12;;;;;;;18.05;2.20;;;8.50;99.90;;;;;;4012013;29;20274;-88
2023/01/13 06:01:13;;;;;;;15.07;1.90;;;8.60;99.90;;;;;;4032820;29;20178;-88
2023/01/13 06:03:14;;;;;;;17.02;2.47;;;8.70;99.90;;;;;;4010954;29;20189;-86
2023/01/13 06:05:15;;;;;;;25.38;2.25;;;8.70;99.90;;;;;;4016161;29;20218;-94
2023/01/13 06:07:16;;;;;;;10.48;1.92;;;8.70;99.90;;;;;;4015735;29;20186;-87
2023/01/13 06:09:16;;;;;;;12.48;2.00;;;8.70;99.90;;;;;;4027148;29;20181;-87
2023/01/13 06:11:17;;;;;;;18.80;2.42;;;8.70;99.90;;;;;;4032252;29;20170;-87
2023/01/13 06:13:18;;;;;;;13.27;1.80;;;8.70;99.90;;;;;;4025890;29;20170;-87
2023/01/13 06:15:19;;;;;;;17.42;2.08;;;8.60;99.90;;;;;;4008589;29;20650;-87
2023/01/13 06:17:20;;;;;;;17.98;1.88;;;8.70;99.90;;;;;;4009389;29;20203;-87
2023/01/13 06:19:21;;;;;;;21.15;2.28;;;8.60;99.90;;;;;;4010608;29;20210;-86
2023/01/13 06:21:21;;;;;;;20.77;3.00;;;8.40;99.90;;;;;;4008988;29;20191;-90
2023/01/13 06:23:23;;;;;;;15.05;2.00;;;8.40;99.90;;;;;;4008113;29;20262;-87
2023/01/13 06:25:45;;;;;;;22.02;2.03;;;8.30;99.90;;;;;;4008506;29;20259;-86
2023/01/13 06:27:46;;;;;;;20.38;2.83;;;8.30;99.90;;;;;;4022848;29;20203;-87
2023/01/13 06:29:47;;;;;;;17.75;1.65;;;8.30;99.90;;;;;;4024572;29;20183;-91
2023/01/13 06:31:48;;;;;;;22.40;2.40;;;8.50;99.90;;;;;;4008570;29;20179;-87
2023/01/13 06:33:52;;;;;;;27.98;2.65;;;8.60;99.90;;;;;;4024190;29;20238;-87
2023/01/13 06:35:58;;;;;;;29.70;2.88;;;8.60;99.90;;;;;;4025519;29;20182;-87
2023/01/13 06:38:04;;;;;;;25.63;3.10;;;8.60;99.90;;;;;;4025932;29;20217;-87
2023/01/13 06:40:06;;;;;;;26.77;2.97;;;8.60;99.90;;;;;;4027130;29;20189;-86
2023/01/13 06:44:28;;;;;;;21.30;2.80;;;8.40;99.90;;;;;;4028337;29;20277;-87
2023/01/13 06:46:28;;;;;;;25.20;3.80;;;8.40;99.90;;;;;;4026055;29;20202;-87
2023/01/13 06:48:32;;;;;;;23.67;8.20;;;8.40;99.90;;;;;;4011030;29;20190;-88
2023/01/13 06:50:33;;;;;;;29.23;4.10;;;8.40;99.90;;;;;;4025824;29;20714;-87
2023/01/13 06:52:34;;;;;;;28.90;2.83;;;8.40;99.90;;;;;;4012105;29;20187;-86
2023/01/13 06:54:35;;;;;;;29.05;5.43;;;8.40;99.90;;;;;;4011047;29;20183;-87
2023/01/13 06:56:35;;;;;;;29.20;3.25;;;8.50;99.90;;;;;;4025755;29;20645;-86
2023/01/13 06:58:36;;;;;;;24.45;3.05;;;8.50;99.90;;;;;;4010700;29;20623;-87
2023/01/13 07:00:37;;;;;;;22.70;3.58;;;8.60;99.90;;;;;;4011141;29;20195;-86
2023/01/13 07:02:37;;;;;;;32.45;4.82;;;8.60;99.90;;;;;;4026772;29;20182;-86
2023/01/13 07:04:38;;;;;;;32.00;4.65;;;8.60;99.90;;;;;;4027056;29;20180;-93
2023/01/13 07:06:39;;;;;;;24.93;2.87;;;8.60;99.90;;;;;;4010185;29;20281;-87
2023/01/13 07:08:39;;;;;;;29.63;4.15;;;8.50;99.90;;;;;;4025787;29;20183;-87
2023/01/13 07:10:40;;;;;;;30.80;3.15;;;8.60;99.90;;;;;;4010603;29;20179;-87
2023/01/13 07:15:18;;;;;;;28.02;2.78;;;8.50;99.90;;;;;;4025457;29;20620;-90
2023/01/13 07:17:23;;;;;;;25.02;3.47;;;8.60;99.90;;;;;;4025725;29;20265;-86
2023/01/13 07:19:24;;;;;;;23.10;3.17;;;8.70;99.90;;;;;;4010672;29;20211;-86
2023/01/13 07:21:25;;;;;;;26.15;3.33;;;8.70;99.90;;;;;;4025985;29;20636;-86
2023/01/13 07:23:29;;;;;;;27.92;3.25;;;8.80;99.90;;;;;;4026102;29;20186;-87
2023/01/13 07:25:31;;;;;;;30.58;3.20;;;8.60;99.90;;;;;;4026683;29;20214;-87
2023/01/13 07:27:33;;;;;;;26.27;3.40;;;8.60;99.90;;;;;;4011561;29;20198;-86
2023/01/13 07:29:34;;;;;;;24.35;3.30;;;8.50;99.90;;;;;;4011885;29;20182;-88
2023/01/13 07:31:35;;;;;;;25.08;2.80;;;8.50;99.90;;;;;;4010603;29;20311;-86
2023/01/13 07:33:36;;;;;;;30.70;6.25;;;8.40;99.90;;;;;;4010563;29;20189;-87
2023/01/13 07:35:36;;;;;;;29.13;3.30;;;8.50;99.90;;;;;;4011796;29;20171;-87
2023/01/13 07:37:38;;;;;;;38.13;5.18;;;8.60;99.90;;;;;;4010802;29;20255;-86
2023/01/13 07:39:39;;;;;;;15.18;2.10;;;8.60;99.90;;;;;;4026495;29;20185;-87
2023/01/13 07:44:03;;;;;;;33.70;3.30;;;8.30;99.90;;;;;;4025667;29;20200;-86
2023/01/13 07:46:05;;;;;;;33.70;3.85;;;8.30;99.90;;;;;;4010324;29;20234;-87
2023/01/13 07:48:06;;;;;;;22.88;2.75;;;8.40;99.90;;;;;;4027268;29;20186;-87
2023/01/13 07:50:08;;;;;;;32.63;4.93;;;8.50;99.90;;;;;;4010834;29;20773;-87
2023/01/13 07:52:08;;;;;;;31.08;4.43;;;8.50;99.90;;;;;;4011409;29;20258;-87
2023/01/13 07:54:09;;;;;;;33.90;3.22;;;8.50;99.90;;;;;;4025437;29;20605;-87
2023/01/13 07:56:10;;;;;;;27.17;3.63;;;8.50;99.90;;;;;;4026013;29;20668;-87
2023/01/13 07:58:11;;;;;;;25.60;3.20;;;8.40;99.90;;;;;;4025295;29;20247;-87
2023/01/13 08:00:13;;;;;;;24.10;3.53;;;8.40;99.90;;;;;;4027137;29;20198;-87
2023/01/13 08:02:13;;;;;;;25.45;3.17;;;8.40;99.90;;;;;;4027841;29;20379;-87
2023/01/13 08:04:14;;;;;;;24.92;3.17;;;8.50;99.90;;;;;;4025538;29;20182;-87
2023/01/13 08:06:15;;;;;;;30.77;3.58;;;8.60;99.90;;;;;;4010733;29;20214;-93
2023/01/13 08:08:16;;;;;;;22.38;3.53;;;8.70;99.90;;;;;;4024560;29;20222;-86
2023/01/13 08:10:17;;;;;;;24.50;2.95;;;8.70;99.90;;;;;;4011359;29;20240;-87
2023/01/13 08:14:37;;;;;;;22.05;2.47;;;8.70;99.90;;;;;;4024930;29;20268;-87
2023/01/13 08:16:38;;;;;;;25.35;3.10;;;8.90;99.90;;;;;;4010031;29;20694;-89
2023/01/13 08:18:39;;;;;;;28.55;3.10;;;9.00;99.90;;;;;;4010948;29;20206;-90
2023/01/13 08:20:40;;;;;;;21.00;2.95;;;8.90;99.90;;;;;;4010242;29;20178;-86
2023/01/13 08:22:43;;;;;;;34.25;3.38;;;8.90;99.90;;;;;;4009914;29;20210;-87
2023/01/13 08:24:43;;;;;;;35.35;4.22;;;8.90;99.90;;;;;;4025067;29;20269;-87
2023/01/13 08:26:44;;;;;;;24.37;3.27;;;8.80;99.90;;;;;;4027032;29;20202;-87
2023/01/13 08:28:45;;;;;;;22.92;3.08;;;8.80;99.90;;;;;;4010478;29;20191;-87
2023/01/13 08:30:45;;;;;;;28.73;3.33;;;8.90;99.90;;;;;;4026370;29;20206;-87
2023/01/13 08:32:48;;;;;;;24.77;2.85;;;9.10;99.90;;;;;;4010906;29;20171;-86
2023/01/13 08:34:49;;;;;;;23.88;2.85;;;9.10;99.90;;;;;;4026473;29;20617;-87
2023/01/13 08:36:50;;;;;;;19.52;2.53;;;9.20;99.90;;;;;;4024555;29;20213;-88
2023/01/13 08:38:50;;;;;;;25.00;2.63;;;9.10;99.90;;;;;;4026320;29;20185;-87
2023/01/13 08:40:51;;;;;;;26.73;3.20;;;9.00;99.90;;;;;;4025368;29;20245;-87
2023/01/13 08:42:54;;;;;;;25.65;2.70;;;9.00;99.90;;;;;;4010595;29;20251;-86
2023/01/13 08:44:55;;;;;;;21.10;2.47;;;9.10;99.90;;;;;;4024493;29;20289;-87
2023/01/13 08:46:57;;;;;;;21.55;2.92;;;9.00;99.90;;;;;;4024096;29;20269;-87
2023/01/13 08:48:57;;;;;;;22.73;3.17;;;9.10;99.90;;;;;;4008500;29;20251;-87
2023/01/13 08:51:06;;;;;;;21.17;2.72;;;9.20;99.90;;;;;;4008718;29;20182;-87
2023/01/13 08:53:06;;;;;;;24.90;3.05;;;9.00;99.90;;;;;;4024646;29;20178;-87
2023/01/13 08:55:07;;;;;;;30.70;3.75;;;9.00;99.90;;;;;;4008785;29;20644;-86
2023/01/13 08:57:08;;;;;;;30.33;3.63;;;9.00;99.90;;;;;;4024922;29;20198;-87
2023/01/13 08:59:17;;;;;;;32.30;3.10;;;9.10;99.90;;;;;;4010102;29;20177;-86
2023/01/13 09:01:22;;;;;;;29.38;3.10;;;9.20;99.90;;;;;;4024297;29;20659;-89
2023/01/13 09:03:22;;;;;;;28.15;3.13;;;9.50;99.90;;;;;;4023910;29;20190;-86
2023/01/13 09:05:23;;;;;;;27.17;3.75;;;9.70;99.90;;;;;;4008990;29;20703;-86
2023/01/13 09:07:24;;;;;;;20.02;2.80;;;9.90;99.90;;;;;;4008785;29;20206;-87
2023/01/13 09:09:26;;;;;;;18.85;2.85;;;10.00;99.90;;;;;;4008491;29;20167;-86
2023/01/13 09:13:52;;;;;;;20.45;3.03;;;10.10;99.90;;;;;;4024930;29;20715;-86
2023/01/13 09:15:55;;;;;;;24.55;3.10;;;10.00;99.90;;;;;;4009309;29;20220;-87
2023/01/13 09:17:56;;;;;;;23.42;3.80;;;10.00;99.90;;;;;;4009135;29;20210;-88
2023/01/13 09:19:56;;;;;;;24.67;2.97;;;10.10;99.90;;;;;;4023784;29;20647;-87
2023/01/13 09:21:57;;;;;;;26.48;3.33;;;10.10;99.90;;;;;;4008673;29;20263;-87
2023/01/13 09:23:58;;;;;;;30.70;3.38;;;10.00;99.90;;;;;;4008949;29;20708;-90
2023/01/13 09:26:00;;;;;;;24.13;3.38;;;10.10;99.90;;;;;;4008616;29;20275;-86
2023/01/13 09:28:03;;;;;;;29.23;3.50;;;10.30;99.90;;;;;;4008325;29;20199;-86
2023/01/13 09:30:05;;;;;;;26.60;2.92;;;10.40;99.90;;;;;;3994136;29;20231;-88
2023/01/13 09:32:06;;;;;;;25.98;3.40;;;10.40;99.90;;;;;;4024787;29;20690;-87
2023/01/13 09:36:31;;;;;;;30.95;4.22;;;10.80;99.90;;;;;;4023737;29;20291;-89
2023/01/13 09:38:32;;;;;;;30.48;3.70;;;10.80;99.90;;;;;;4023509;29;20178;-87
2023/01/13 09:40:32;;;;;;;30.92;3.75;;;10.80;99.90;;;;;;4024733;29;20660;-87
2023/01/13 09:45:22;;;;;;;26.95;4.00;;;10.60;99.90;;;;;;4023582;29;20225;-87
2023/01/13 09:47:54;;;;;;;16.65;2.97;;;10.70;99.90;;;;;;4024667;29;20225;-87
2023/01/13 09:50:27;;;;;;;39.78;4.25;;;10.60;99.90;;;;;;4023122;29;20281;-86
2023/01/13 09:52:28;;;;;;;25.15;3.90;;;10.50;99.90;;;;;;4008269;29;20186;-87
2023/01/13 09:54:54;;;;;;;32.10;4.15;;;10.40;99.90;;;;;;4008515;29;20669;-87
2023/01/13 09:56:55;;;;;;;26.42;3.90;;;10.40;99.90;;;;;;4008754;29;20207;-87
2023/01/13 09:58:56;;;;;;;30.48;3.63;;;10.50;99.90;;;;;;4008745;29;20215;-87
2023/01/13 10:01:20;;;;;;;27.50;3.65;;;10.50;99.90;;;;;;4023801;29;20174;-87
2023/01/13 10:03:31;;;;;;;25.85;3.63;;;10.30;99.90;;;;;;4024041;29;20628;-87
2023/01/13 10:05:43;;;;;;;23.75;3.55;;;10.20;99.90;;;;;;4008716;29;20210;-87
2023/01/13 10:07:56;;;;;;;25.40;3.95;;;10.10;99.90;;;;;;4024376;29;20687;-87
2023/01/13 10:10:00;;;;;;;26.95;3.28;;;10.30;99.90;;;;;;4025027;29;20259;-86
2023/01/13 10:14:40;;;;;;;32.13;3.80;;;10.40;99.90;;;;;;4027858;29;20250;-87
2023/01/13 10:16:47;;;;;;;22.85;3.47;;;10.60;99.90;;;;;;4027805;29;20250;-87
2023/01/13 10:19:19;;;;;;;29.50;4.82;;;10.50;99.90;;;;;;4026286;29;20185;-86
2023/01/13 10:21:31;;;;;;;36.17;3.72;;;10.60;99.90;;;;;;3998902;29;20188;-86
2023/01/13 10:24:08;;;;;;;28.08;3.90;;;10.60;99.90;;;;;;4025957;29;20249;-87
2023/01/13 10:26:22;;;;;;;27.38;2.97;;;10.80;99.90;;;;;;3998148;29;20237;-87
2023/01/13 10:28:24;;;;;;;28.63;3.88;;;10.80;99.90;;;;;;4010569;29;20251;-87
2023/01/13 10:30:32;;;;;;;20.52;3.13;;;10.70;99.90;;;;;;4041823;29;20181;-87
2023/01/13 10:32:33;;;;;;;26.08;3.78;;;10.60;99.90;;;;;;4026793;29;20182;-87
2023/01/13 10:34:56;;;;;;;25.98;4.18;;;10.50;99.90;;;;;;4011754;29;20185;-86
2023/01/13 10:37:06;;;;;;;32.53;4.18;;;10.40;99.90;;;;;;4026668;29;20234;-87
2023/01/13 10:39:15;;;;;;;25.45;3.78;;;10.30;99.90;;;;;;4026303;29;20190;-87
2023/01/13 10:41:16;;;;;;;29.38;5.07;;;10.00;99.90;;;;;;4011635;29;20183;-88
2023/01/13 10:43:17;;;;;;;49.05;10.85;;;10.30;99.90;;;;;;4026992;29;20683;-88
2023/01/13 10:45:24;;;;;;;35.33;7.75;;;10.40;99.90;;;;;;4026353;29;20213;-86
2023/01/13 10:47:28;;;;;;;28.98;5.82;;;10.50;99.90;;;;;;4027116;29;20258;-87
2023/01/13 10:49:37;;;;;;;29.13;7.88;;;10.50;99.90;;;;;;4026434;29;20171;-88
2023/01/13 10:51:38;;;;;;;315.55;158.32;;;10.50;99.90;;;;;;4026603;29;20670;-87
2023/01/13 10:54:21;;;;;;;144.27;94.97;;;10.40;99.90;;;;;;4011088;29;20269;-86
2023/01/13 10:56:28;;;;;;;136.48;89.45;;;10.40;99.90;;;;;;4001146;29;20214;-88
2023/01/13 10:58:29;;;;;;;34.65;14.52;;;10.30;99.90;;;;;;4026785;29;20167;-87
2023/01/13 11:00:32;;;;;;;38.15;11.55;;;10.30;99.90;;;;;;4011717;29;20171;-88
2023/01/13 11:02:35;;;;;;;28.40;4.82;;;10.10;99.90;;;;;;4026397;29;20186;-87
2023/01/13 11:04:59;;;;;;;32.35;4.65;;;10.20;99.90;;;;;;4026196;29;20170;-87
2023/01/13 11:07:02;;;;;;;21.52;3.85;;;10.40;99.90;;;;;;4026113;29;20206;-88
2023/01/13 11:09:21;;;;;;;30.92;4.07;;;10.20;99.90;;;;;;4025895;29;20223;-87
2023/01/13 11:11:42;;;;;;;28.75;4.57;;;10.10;99.90;;;;;;4026290;29;20174;-89
2023/01/13 11:14:31;;;;;;;31.10;3.90;;;10.20;99.90;;;;;;4026364;29;20543;-87
2023/01/13 11:16:15;;;;;;;26.85;3.83;;;10.20;99.90;;;;;;4030398;29;20203;-87
2023/01/13 11:18:36;;;;;;;18.48;2.80;;;10.20;99.90;;;;;;4028628;29;20555;-87
2023/01/13 11:20:40;;;;;;;21.23;4.25;;;10.20;99.90;;;;;;4025451;29;20195;-87
2023/01/13 11:22:50;;;;;;;26.30;4.10;;;10.20;99.90;;;;;;4010207;29;20569;-87
2023/01/13 11:24:57;;;;;;;23.58;4.97;;;10.20;99.90;;;;;;4010794;29;20174;-87
2023/01/13 11:27:23;;;;;;;28.40;3.85;;;10.30;99.90;;;;;;4026043;29;20202;-87
2023/01/13 11:29:41;;;;;;;27.02;4.07;;;10.40;99.90;;;;;;4024765;29;20198;-87
2023/01/13 11:31:48;;;;;;;20.38;3.88;;;10.40;99.90;;;;;;4010973;29;20189;-87
2023/01/13 11:34:17;;;;;;;38.85;4.30;;;10.40;99.90;;;;;;4025232;29;20186;-87
2023/01/13 11:36:31;;;;;;;23.67;3.17;;;10.30;99.90;;;;;;4025633;29;20182;-88
2023/01/13 11:38:36;;;;;;;22.83;3.00;;;10.40;99.90;;;;;;4025517;29;20182;-89
2023/01/13 11:40:41;;;;;;;19.10;3.10;;;10.40;99.90;;;;;;4010243;29;20185;-87
2023/01/13 11:42:54;;;;;;;23.52;3.10;;;10.60;99.90;;;;;;4025475;29;20170;-88